Time;durP1;ratioP1;P1;durP2;ratioP2;P2;SDS_P1;SDS_P2;PMS_P1;PMS_P2;Temp;Humidity;BMP_temperature;BMP_pressure;BME280_temperature;BME280_humidity;BME280_pressure;Samples;Min_cycle;Max_cycle;Signal;HPM_P1;HPM_P2
2021/04/08 00:00:11;;;;;;;1.38;0.28;;;30.80;69.20;;;;;;5071104;28;20115;-71
2021/04/08 00:02:45;;;;;;;0.98;0.20;;;31.30;67.40;;;;;;5070168;28;20032;-67
2021/04/08 00:05:15;;;;;;;0.93;0.30;;;31.10;66.40;;;;;;5066967;28;20036;-71
2021/04/08 00:07:43;;;;;;;2.25;0.35;;;31.10;66.00;;;;;;5066561;28;20345;-71
2021/04/08 00:10:12;;;;;;;1.88;0.68;;;31.40;65.80;;;;;;5061547;28;20056;-68
2021/04/08 00:12:40;;;;;;;1.95;0.38;;;30.70;63.20;;;;;;5072471;28;22552;-68
2021/04/08 00:15:15;;;;;;;1.15;0.30;;;30.60;66.10;;;;;;5068743;28;20037;-68
2021/04/08 00:17:43;;;;;;;1.60;0.30;;;30.90;66.30;;;;;;5064910;28;20799;-71
2021/04/08 00:20:18;;;;;;;0.77;0.30;;;31.20;66.00;;;;;;5064808;28;20052;-69
2021/04/08 00:22:46;;;;;;;1.88;0.40;;;30.80;65.20;;;;;;5059229;28;20031;-68
2021/04/08 00:25:14;;;;;;;1.33;0.40;;;31.00;63.60;;;;;;5061860;28;20032;-70
2021/04/08 00:27:43;;;;;;;2.33;0.35;;;31.00;63.30;;;;;;5068409;28;20046;-70
2021/04/08 00:30:12;;;;;;;3.35;0.40;;;31.10;62.20;;;;;;5072486;28;20534;-69
2021/04/08 00:32:40;;;;;;;0.60;0.30;;;31.00;62.30;;;;;;5055580;28;20075;-69
2021/04/08 00:35:08;;;;;;;2.63;0.73;;;30.60;63.00;;;;;;5063788;28;20033;-69
2021/04/08 00:37:36;;;;;;;1.55;0.30;;;30.80;63.40;;;;;;5068154;28;20382;-69
2021/04/08 00:40:11;;;;;;;1.67;0.30;;;31.00;63.50;;;;;;5065906;28;20482;-72
2021/04/08 00:42:43;;;;;;;1.23;0.20;;;31.50;61.60;;;;;;5073668;28;20098;-74
2021/04/08 00:45:13;;;;;;;0.68;0.40;;;31.90;58.70;;;;;;5058903;28;20032;-71
2021/04/08 00:47:41;;;;;;;1.15;0.30;;;31.90;58.40;;;;;;5069154;28;20043;-73
2021/04/08 00:50:09;;;;;;;1.83;0.30;;;31.70;59.30;;;;;;5057187;28;20112;-73
2021/04/08 00:52:37;;;;;;;3.22;0.38;;;31.40;60.20;;;;;;5064488;28;20028;-72
2021/04/08 00:55:05;;;;;;;1.90;0.30;;;31.30;60.70;;;;;;5062707;28;20639;-68
2021/04/08 00:57:32;;;;;;;2.45;0.32;;;31.70;62.10;;;;;;5056471;28;20025;-71
2021/04/08 01:00:02;;;;;;;5.47;0.60;;;31.90;61.90;;;;;;5068110;28;20631;-71
2021/04/08 01:02:30;;;;;;;0.98;0.30;;;31.60;59.20;;;;;;5062523;28;20333;-68
2021/04/08 01:04:59;;;;;;;0.60;0.20;;;31.70;62.60;;;;;;5059956;28;20035;-71
2021/04/08 01:07:26;;;;;;;1.10;0.38;;;31.00;61.00;;;;;;5059881;28;20064;-70
2021/04/08 01:09:55;;;;;;;1.92;0.60;;;30.70;63.20;;;;;;5065937;28;20040;-70
2021/04/08 01:12:22;;;;;;;1.48;0.32;;;31.50;60.80;;;;;;5064569;28;20055;-70
2021/04/08 01:14:49;;;;;;;2.17;0.57;;;31.00;62.50;;;;;;5066918;28;20033;-70
2021/04/08 01:17:33;;;;;;;2.35;0.50;;;30.60;63.50;;;;;;5071083;28;20013;-72
2021/04/08 01:20:22;;;;;;;1.63;0.60;;;29.50;63.20;;;;;;5064775;28;20066;-71
2021/04/08 01:22:58;;;;;;;1.33;0.30;;;29.40;64.80;;;;;;5055844;28;20069;-71
2021/04/08 01:25:35;;;;;;;2.05;0.30;;;30.40;62.50;;;;;;5062159;28;20028;-70
2021/04/08 01:28:22;;;;;;;2.35;0.50;;;30.10;63.70;;;;;;5070568;28;20024;-71
2021/04/08 01:30:51;;;;;;;1.27;0.52;;;29.30;63.40;;;;;;5057802;28;20597;-70
2021/04/08 01:33:43;;;;;;;1.08;0.52;;;28.80;64.50;;;;;;5073838;28;20037;-71
2021/04/08 01:36:18;;;;;;;2.63;0.45;;;28.20;66.50;;;;;;5065609;28;20588;-71
2021/04/08 01:39:03;;;;;;;2.33;0.40;;;27.80;68.20;;;;;;5066902;28;20032;-70
2021/04/08 01:41:35;;;;;;;4.33;0.37;;;28.10;69.50;;;;;;5073269;28;20061;-69
2021/04/08 01:44:04;;;;;;;2.90;0.60;;;29.70;67.10;;;;;;5067715;28;20409;-70
2021/04/08 01:46:34;;;;;;;2.53;0.32;;;31.00;63.30;;;;;;5067137;28;20025;-70
2021/04/08 01:49:04;;;;;;;1.73;0.40;;;32.00;63.00;;;;;;5064388;28;20073;-68
2021/04/08 01:51:32;;;;;;;1.70;0.38;;;32.40;57.70;;;;;;5067038;28;20021;-68
2021/04/08 01:54:03;;;;;;;3.50;0.38;;;32.70;58.30;;;;;;5073940;28;20028;-70
2021/04/08 01:56:36;;;;;;;1.30;0.30;;;32.40;58.00;;;;;;5070501;28;20024;-70
2021/04/08 01:59:05;;;;;;;1.85;0.38;;;32.60;58.30;;;;;;5068965;28;20067;-69
2021/04/08 02:01:35;;;;;;;2.15;0.30;;;32.50;54.40;;;;;;5068189;28;20036;-70
2021/04/08 02:04:04;;;;;;;1.50;0.30;;;31.90;54.50;;;;;;5069718;28;20021;-70
2021/04/08 02:06:33;;;;;;;2.42;0.40;;;31.80;58.00;;;;;;5072687;28;20723;-69
2021/04/08 02:09:01;;;;;;;2.28;0.40;;;31.60;54.50;;;;;;5062219;28;20029;-68
2021/04/08 02:11:31;;;;;;;2.10;0.38;;;32.10;59.60;;;;;;5067880;28;20060;-68
2021/04/08 02:14:00;;;;;;;0.93;0.20;;;32.80;59.60;;;;;;5066576;28;20032;-67
2021/04/08 02:16:28;;;;;;;1.40;0.63;;;33.10;54.10;;;;;;5079146;28;20056;-69
2021/04/08 02:18:58;;;;;;;4.82;0.50;;;32.90;55.90;;;;;;5071823;28;20479;-68
2021/04/08 02:21:27;;;;;;;1.42;0.30;;;33.50;55.40;;;;;;5068003;28;20427;-68
2021/04/08 02:23:56;;;;;;;2.22;0.50;;;32.80;58.60;;;;;;5076871;28;20036;-68
2021/04/08 02:26:24;;;;;;;1.27;0.50;;;31.10;55.20;;;;;;5068727;28;20024;-68
2021/04/08 02:28:53;;;;;;;2.25;0.40;;;29.80;57.60;;;;;;5070381;28;20032;-68
2021/04/08 02:31:21;;;;;;;0.60;0.40;;;29.60;61.80;;;;;;5064340;28;20115;-68
2021/04/08 02:33:48;;;;;;;1.40;0.30;;;30.10;61.40;;;;;;5071105;28;20128;-68
2021/04/08 02:36:16;;;;;;;2.40;0.38;;;31.10;62.60;;;;;;5064419;28;20024;-68
2021/04/08 02:38:43;;;;;;;1.65;0.77;;;31.20;60.40;;;;;;5073914;28;20039;-70
2021/04/08 02:41:11;;;;;;;1.70;0.88;;;32.10;59.90;;;;;;5071450;28;20131;-70
2021/04/08 02:43:39;;;;;;;2.13;0.28;;;32.90;56.50;;;;;;5074481;28;20086;-70
2021/04/08 02:46:08;;;;;;;1.77;0.32;;;33.20;49.30;;;;;;5075339;28;20056;-69
2021/04/08 02:48:35;;;;;;;2.05;0.40;;;32.40;49.70;;;;;;5065500;28;20033;-68
2021/04/08 02:51:51;;;;;;;2.17;0.45;;;32.10;52.20;;;;;;5068417;28;20040;-69
2021/04/08 02:54:36;;;;;;;1.45;0.50;;;32.90;55.20;;;;;;5059531;28;20036;-68
2021/04/08 02:57:05;;;;;;;1.80;0.50;;;32.80;51.90;;;;;;5069470;28;20033;-68
2021/04/08 02:59:53;;;;;;;1.63;0.30;;;32.40;50.00;;;;;;5066437;28;20051;-67
2021/04/08 03:02:27;;;;;;;2.50;0.38;;;32.40;50.10;;;;;;5072769;28;20025;-68
2021/04/08 03:04:57;;;;;;;0.95;0.30;;;32.20;49.50;;;;;;5065552;28;20109;-68
2021/04/08 03:07:37;;;;;;;0.85;0.30;;;30.80;52.50;;;;;;5069986;28;20024;-71
2021/04/08 03:10:07;;;;;;;1.52;0.35;;;29.80;56.00;;;;;;5054135;28;20073;-68
2021/04/08 03:12:39;;;;;;;0.95;0.30;;;29.30;57.00;;;;;;5073903;28;20036;-68
2021/04/08 03:15:09;;;;;;;0.80;0.30;;;29.10;61.70;;;;;;5074079;28;20035;-68
2021/04/08 03:17:40;;;;;;;2.00;0.57;;;29.50;60.70;;;;;;5075207;28;20024;-68
2021/04/08 03:20:11;;;;;;;4.18;0.52;;;30.80;59.50;;;;;;5071097;28;20044;-68
2021/04/08 03:22:40;;;;;;;2.95;0.43;;;32.10;56.80;;;;;;5063520;28;20032;-69
2021/04/08 03:25:09;;;;;;;1.23;0.50;;;33.10;54.80;;;;;;5066431;28;20105;-67
2021/04/08 03:27:38;;;;;;;3.85;1.10;;;33.40;53.30;;;;;;5067718;28;20040;-67
2021/04/08 03:30:12;;;;;;;1.83;0.40;;;33.90;52.20;;;;;;5069365;28;20518;-67
2021/04/08 03:32:40;;;;;;;3.78;0.38;;;34.00;52.10;;;;;;5066024;28;20025;-67
2021/04/08 03:35:09;;;;;;;1.70;0.70;;;34.10;49.90;;;;;;5070016;28;20487;-68
2021/04/08 03:37:37;;;;;;;2.13;0.32;;;34.20;52.30;;;;;;5070625;28;20021;-68
2021/04/08 03:40:05;;;;;;;2.53;0.57;;;34.00;49.80;;;;;;5075462;28;20028;-69
2021/04/08 03:42:34;;;;;;;1.52;0.50;;;33.30;50.90;;;;;;5073211;28;20016;-69
2021/04/08 03:45:03;;;;;;;2.45;0.40;;;32.10;52.40;;;;;;5068647;28;20028;-69
2021/04/08 03:47:32;;;;;;;2.22;0.40;;;30.70;57.10;;;;;;5072879;28;20534;-68
2021/04/08 03:50:00;;;;;;;2.83;0.63;;;29.60;61.30;;;;;;5066439;28;20441;-69
2021/04/08 03:52:28;;;;;;;3.03;0.75;;;28.70;65.00;;;;;;5060955;28;20059;-68
2021/04/08 03:54:57;;;;;;;3.65;0.90;;;28.00;67.70;;;;;;5060937;28;20479;-68
2021/04/08 03:57:26;;;;;;;2.55;0.60;;;27.50;70.10;;;;;;5068675;28;20055;-68
2021/04/08 03:59:54;;;;;;;3.88;0.68;;;27.30;72.10;;;;;;5075458;28;20047;-68
2021/04/08 04:02:22;;;;;;;4.00;0.50;;;27.10;72.60;;;;;;5066587;28;20609;-68
2021/04/08 04:04:50;;;;;;;5.35;1.08;;;26.90;73.70;;;;;;5070290;28;20062;-68
2021/04/08 04:07:20;;;;;;;2.17;0.77;;;26.70;74.80;;;;;;5068040;28;20139;-69
2021/04/08 04:09:47;;;;;;;2.90;0.70;;;26.50;75.80;;;;;;5067077;28;20032;-69
2021/04/08 04:12:16;;;;;;;3.60;0.88;;;26.50;76.40;;;;;;5063322;28;20029;-69
2021/04/08 04:14:45;;;;;;;4.75;1.20;;;26.50;76.70;;;;;;5071819;28;20048;-69
2021/04/08 04:17:39;;;;;;;6.78;1.10;;;26.50;77.40;;;;;;5060085;28;20047;-68
2021/04/08 04:20:07;;;;;;;3.33;0.90;;;26.30;77.10;;;;;;5062439;28;20043;-69
2021/04/08 04:22:36;;;;;;;3.97;1.23;;;26.30;77.30;;;;;;5063597;28;20097;-69
2021/04/08 04:25:06;;;;;;;1.80;0.80;;;26.30;77.50;;;;;;5067430;28;20025;-68
2021/04/08 04:27:34;;;;;;;5.78;1.27;;;26.20;77.80;;;;;;5062563;28;20021;-69
2021/04/08 04:30:03;;;;;;;4.20;0.55;;;26.30;76.90;;;;;;5070779;28;20394;-69
2021/04/08 04:32:31;;;;;;;3.38;0.70;;;26.30;76.70;;;;;;5072838;28;20025;-69
2021/04/08 04:34:58;;;;;;;2.30;0.63;;;26.30;76.70;;;;;;5062694;28;20029;-68
2021/04/08 04:37:25;;;;;;;2.58;1.02;;;26.30;77.00;;;;;;5071992;28;20380;-68
2021/04/08 04:39:53;;;;;;;2.03;0.77;;;26.10;76.70;;;;;;5062493;28;20108;-69
2021/04/08 04:42:20;;;;;;;3.67;0.70;;;26.10;77.30;;;;;;5075021;28;20111;-68
2021/04/08 04:44:48;;;;;;;7.65;0.70;;;26.00;77.30;;;;;;5063916;28;20050;-69
2021/04/08 04:47:15;;;;;;;7.97;1.00;;;26.10;77.50;;;;;;5071001;28;20039;-69
2021/04/08 04:49:43;;;;;;;3.17;0.50;;;26.10;77.80;;;;;;5062984;28;20056;-69
2021/04/08 04:52:10;;;;;;;2.80;0.77;;;26.00;78.30;;;;;;5069362;28;20031;-69
2021/04/08 04:54:37;;;;;;;1.63;0.38;;;26.10;78.10;;;;;;5058810;28;20506;-69
2021/04/08 04:57:05;;;;;;;2.78;0.55;;;25.80;78.50;;;;;;5071865;28;20545;-69
2021/04/08 04:59:32;;;;;;;1.92;0.30;;;25.90;78.00;;;;;;5068513;28;20039;-68
2021/04/08 05:02:00;;;;;;;3.30;0.88;;;26.00;76.80;;;;;;5068649;28;20066;-68
2021/04/08 05:04:27;;;;;;;3.35;0.55;;;26.10;77.30;;;;;;5068741;28;20056;-69
2021/04/08 05:06:55;;;;;;;2.92;0.50;;;26.30;76.60;;;;;;5061615;28;20484;-68
2021/04/08 05:09:22;;;;;;;4.82;1.10;;;26.40;76.60;;;;;;5069473;28;20542;-68
2021/04/08 05:11:50;;;;;;;1.77;0.40;;;26.40;76.50;;;;;;5065534;28;20021;-67
2021/04/08 05:14:17;;;;;;;1.77;0.47;;;26.40;75.80;;;;;;5055663;28;20025;-68
2021/04/08 05:16:44;;;;;;;6.45;1.00;;;26.40;75.80;;;;;;5071324;28;20059;-67
2021/04/08 05:19:12;;;;;;;4.38;0.90;;;26.20;75.40;;;;;;5067389;28;20315;-68
2021/04/08 05:21:39;;;;;;;4.30;1.25;;;26.20;76.30;;;;;;5066307;28;20037;-68
2021/04/08 05:24:07;;;;;;;2.60;0.52;;;26.30;76.40;;;;;;5064810;28;20100;-67
2021/04/08 05:26:34;;;;;;;2.85;0.50;;;26.40;75.30;;;;;;5072070;28;20082;-67
2021/04/08 05:29:02;;;;;;;2.47;0.55;;;26.10;75.50;;;;;;5062759;28;20063;-68
2021/04/08 05:31:30;;;;;;;1.65;0.52;;;25.70;75.90;;;;;;5071958;28;20027;-68
2021/04/08 05:33:58;;;;;;;2.95;0.70;;;25.80;77.20;;;;;;5068462;28;20064;-67
2021/04/08 05:36:25;;;;;;;5.65;1.75;;;25.90;76.50;;;;;;5071807;28;20675;-68
2021/04/08 05:38:53;;;;;;;4.75;1.17;;;26.10;75.40;;;;;;5077532;28;20084;-68
2021/04/08 05:41:20;;;;;;;4.38;0.65;;;26.00;75.30;;;;;;5077549;28;20025;-68
2021/04/08 05:43:47;;;;;;;6.28;0.80;;;26.10;76.20;;;;;;5076351;28;20047;-69
2021/04/08 05:46:15;;;;;;;2.78;0.38;;;26.30;74.90;;;;;;5072289;28;20098;-69
2021/04/08 05:48:42;;;;;;;2.33;0.40;;;26.10;74.80;;;;;;5070736;28;20048;-69
2021/04/08 05:51:10;;;;;;;2.67;0.60;;;26.10;74.50;;;;;;5070545;28;20024;-69
2021/04/08 05:53:37;;;;;;;2.05;0.60;;;25.80;75.40;;;;;;5069531;28;20021;-69
2021/04/08 05:56:05;;;;;;;3.22;0.50;;;25.80;75.40;;;;;;5075727;28;20060;-68
2021/04/08 05:58:32;;;;;;;4.03;0.50;;;25.60;74.60;;;;;;5074120;28;20031;-68
2021/04/08 06:01:00;;;;;;;1.88;0.60;;;25.60;76.30;;;;;;5071792;28;20075;-69
2021/04/08 06:03:27;;;;;;;1.33;0.28;;;25.60;75.90;;;;;;5067704;28;20025;-68
2021/04/08 06:05:55;;;;;;;1.30;0.30;;;25.60;75.30;;;;;;5069982;28;20032;-68
2021/04/08 06:08:22;;;;;;;1.83;0.40;;;25.60;75.60;;;;;;5073970;28;20037;-70
2021/04/08 06:10:49;;;;;;;1.90;0.52;;;25.90;74.90;;;;;;5065973;28;20063;-67
2021/04/08 06:13:17;;;;;;;1.23;0.30;;;25.90;75.10;;;;;;5070233;28;20094;-67
2021/04/08 06:15:44;;;;;;;2.47;0.57;;;26.00;74.40;;;;;;5070201;28;20032;-68
2021/04/08 06:18:12;;;;;;;2.70;0.75;;;25.80;73.70;;;;;;5077552;28;20296;-69
2021/04/08 06:20:39;;;;;;;1.58;0.60;;;25.70;75.30;;;;;;5068025;28;20094;-67
2021/04/08 06:23:07;;;;;;;2.75;0.50;;;25.60;76.50;;;;;;5072393;28;20029;-69
2021/04/08 06:25:34;;;;;;;0.88;0.20;;;25.80;75.20;;;;;;5071042;28;20024;-69
2021/04/08 06:28:02;;;;;;;3.45;0.57;;;25.60;75.40;;;;;;5072187;28;20203;-69
2021/04/08 06:30:29;;;;;;;2.45;0.40;;;25.50;75.90;;;;;;5069251;28;20029;-69
2021/04/08 06:32:57;;;;;;;2.20;0.40;;;25.60;76.70;;;;;;5074915;28;20047;-68
2021/04/08 06:35:25;;;;;;;3.67;0.93;;;25.60;75.50;;;;;;5070362;28;20037;-67
2021/04/08 06:37:53;;;;;;;5.32;1.05;;;25.60;76.60;;;;;;5070272;28;20032;-68
2021/04/08 06:40:23;;;;;;;2.03;0.60;;;25.60;77.00;;;;;;5067725;28;20081;-68
2021/04/08 06:42:55;;;;;;;1.00;0.30;;;25.60;76.50;;;;;;5069258;28;20074;-68
2021/04/08 06:45:29;;;;;;;3.40;0.60;;;25.70;75.40;;;;;;5062751;28;20028;-68
2021/04/08 06:48:20;;;;;;;1.85;0.30;;;25.60;74.90;;;;;;5064944;28;20198;-68
2021/04/08 06:50:54;;;;;;;3.15;1.23;;;25.50;75.20;;;;;;5069628;28;20463;-68
2021/04/08 06:53:21;;;;;;;2.08;0.85;;;25.50;75.70;;;;;;5068691;28;20530;-69
2021/04/08 06:55:50;;;;;;;2.55;0.75;;;25.30;76.10;;;;;;5068929;28;20122;-69
2021/04/08 06:58:17;;;;;;;2.70;0.70;;;25.30;76.80;;;;;;5078075;28;20090;-69
2021/04/08 07:00:45;;;;;;;2.53;0.60;;;25.20;76.90;;;;;;5075917;28;20067;-69
2021/04/08 07:03:13;;;;;;;2.40;0.30;;;25.10;77.30;;;;;;5067980;28;20371;-68
2021/04/08 07:05:40;;;;;;;2.85;0.68;;;25.00;76.90;;;;;;5068991;28;20025;-69
2021/04/08 07:08:07;;;;;;;3.50;0.50;;;25.00;77.10;;;;;;5068187;28;20052;-68
2021/04/08 07:10:35;;;;;;;1.40;0.40;;;25.00;77.00;;;;;;5068342;28;20032;-68
2021/04/08 07:13:02;;;;;;;1.27;0.30;;;25.00;77.20;;;;;;5065966;28;20048;-68
2021/04/08 07:15:30;;;;;;;2.10;0.40;;;24.90;76.70;;;;;;5067608;28;20040;-68
2021/04/08 07:17:59;;;;;;;2.35;0.50;;;24.80;77.90;;;;;;5069623;28;20489;-69
2021/04/08 07:20:26;;;;;;;2.05;0.43;;;24.80;78.10;;;;;;5069279;28;20290;-69
2021/04/08 07:23:09;;;;;;;2.65;0.60;;;24.60;79.00;;;;;;5068154;28;20020;-69
2021/04/08 07:25:36;;;;;;;2.25;0.88;;;24.40;80.40;;;;;;5071510;28;20472;-68
2021/04/08 07:28:50;;;;;;;2.72;1.10;;;24.20;81.20;;;;;;5059322;28;20056;-69
2021/04/08 07:31:32;;;;;;;3.22;1.13;;;24.00;82.00;;;;;;5073390;28;20158;-68
2021/04/08 07:34:03;;;;;;;4.20;0.50;;;24.00;82.00;;;;;;5074688;28;20028;-68
2021/04/08 07:36:34;;;;;;;3.42;0.38;;;23.90;82.20;;;;;;5074978;28;20052;-68
2021/04/08 07:39:05;;;;;;;3.38;0.60;;;23.80;82.60;;;;;;5064838;28;20070;-68
2021/04/08 07:41:35;;;;;;;3.50;0.95;;;23.80;83.00;;;;;;5067964;28;20167;-68
2021/04/08 07:44:11;;;;;;;2.97;1.33;;;23.80;83.20;;;;;;5066696;28;20051;-68
2021/04/08 07:46:39;;;;;;;;;;;23.70;83.60;;;;;;5065800;28;20115;-69
2021/04/08 07:49:30;;;;;;;3.38;1.10;;;23.60;84.50;;;;;;5065779;28;19916;-67
2021/04/08 07:52:14;;;;;;;4.25;0.57;;;23.60;85.60;;;;;;5069455;28;20078;-69
2021/04/08 07:54:56;;;;;;;2.55;0.65;;;23.60;86.10;;;;;;5074311;28;20098;-69
2021/04/08 07:57:23;;;;;;;2.15;0.75;;;23.60;86.60;;;;;;5069813;28;20099;-69
2021/04/08 07:59:53;;;;;;;1.88;0.40;;;23.50;86.20;;;;;;5072390;28;20497;-68
2021/04/08 08:02:27;;;;;;;4.57;0.57;;;23.40;86.70;;;;;;5070957;28;20405;-69
2021/04/08 08:05:20;;;;;;;2.28;0.60;;;23.40;87.00;;;;;;5060166;28;20095;-69
2021/04/08 08:07:47;;;;;;;3.17;0.82;;;23.30;87.30;;;;;;5069450;28;20028;-69
2021/04/08 08:10:17;;;;;;;1.98;0.70;;;23.20;87.70;;;;;;5075794;28;20065;-69
2021/04/08 08:12:45;;;;;;;4.88;0.70;;;23.20;87.90;;;;;;5064777;28;20058;-69
2021/04/08 08:15:25;;;;;;;3.50;0.60;;;23.20;87.50;;;;;;5059768;28;20464;-69
2021/04/08 08:17:55;;;;;;;3.30;0.50;;;23.20;87.80;;;;;;5069902;28;20024;-69
2021/04/08 08:20:23;;;;;;;4.20;1.35;;;22.90;88.60;;;;;;5071176;28;20032;-68
2021/04/08 08:22:51;;;;;;;1.40;0.65;;;22.80;89.40;;;;;;5076238;28;20028;-69
2021/04/08 08:25:28;;;;;;;2.88;0.70;;;22.90;89.30;;;;;;5071665;28;20070;-68
2021/04/08 08:27:56;;;;;;;5.47;1.10;;;22.90;89.10;;;;;;5069557;28;20084;-69
2021/04/08 08:30:52;;;;;;;3.45;0.70;;;23.00;89.00;;;;;;5070802;28;20064;-69
2021/04/08 08:33:25;;;;;;;2.30;0.65;;;23.00;89.00;;;;;;5075848;28;20028;-69
2021/04/08 08:35:53;;;;;;;1.90;1.08;;;22.90;89.00;;;;;;5070211;28;20466;-67
2021/04/08 08:38:23;;;;;;;2.45;0.60;;;22.80;89.20;;;;;;5070822;28;20067;-69
2021/04/08 08:40:52;;;;;;;2.53;0.60;;;22.70;89.60;;;;;;5077055;28;20046;-68
2021/04/08 08:43:21;;;;;;;2.70;0.47;;;22.60;90.10;;;;;;5078707;28;20017;-69
2021/04/08 08:45:49;;;;;;;3.10;1.15;;;22.50;90.80;;;;;;5076831;28;20061;-68
2021/04/08 08:48:19;;;;;;;1.85;0.88;;;22.40;90.70;;;;;;5063636;28;20448;-69
2021/04/08 08:50:51;;;;;;;2.05;0.95;;;22.40;90.80;;;;;;5072031;28;20364;-68
2021/04/08 08:53:19;;;;;;;3.03;0.95;;;22.30;90.60;;;;;;5074038;28;20504;-69
2021/04/08 08:55:47;;;;;;;6.40;1.10;;;22.30;90.80;;;;;;5069751;28;20036;-68
2021/04/08 08:58:14;;;;;;;4.05;1.00;;;22.20;91.20;;;;;;5062156;28;20082;-68
2021/04/08 09:00:42;;;;;;;3.85;0.90;;;22.20;91.00;;;;;;5070714;28;20204;-69
2021/04/08 09:03:09;;;;;;;3.58;1.10;;;22.00;91.20;;;;;;5070636;28;20047;-68
2021/04/08 09:05:37;;;;;;;4.25;1.52;;;22.00;91.30;;;;;;5058959;28;20032;-68
2021/04/08 09:08:12;;;;;;;2.35;0.55;;;22.00;91.30;;;;;;5069758;28;20035;-68
2021/04/08 09:10:42;;;;;;;4.65;1.30;;;22.00;91.20;;;;;;5065912;28;20039;-69
2021/04/08 09:13:11;;;;;;;2.20;0.70;;;22.00;91.20;;;;;;5065999;28;20470;-68
2021/04/08 09:15:39;;;;;;;3.80;1.10;;;21.90;91.30;;;;;;5077189;28;20096;-69
2021/04/08 09:18:09;;;;;;;4.10;0.90;;;22.10;91.20;;;;;;5078881;28;20395;-70
2021/04/08 09:20:37;;;;;;;3.40;0.80;;;22.00;90.80;;;;;;5069015;28;20059;-70
2021/04/08 09:23:13;;;;;;;6.03;0.80;;;22.00;90.90;;;;;;5070021;28;20031;-69
2021/04/08 09:25:49;;;;;;;4.32;1.25;;;21.90;91.00;;;;;;5077009;28;20205;-68
2021/04/08 09:28:18;;;;;;;3.63;0.90;;;21.70;91.30;;;;;;5075806;28;20043;-68
2021/04/08 09:31:05;;;;;;;2.58;1.05;;;21.70;91.40;;;;;;5072849;28;20389;-69
2021/04/08 09:33:42;;;;;;;5.00;0.93;;;21.60;91.50;;;;;;5075417;28;20035;-69
2021/04/08 09:36:25;;;;;;;6.63;0.90;;;21.60;91.50;;;;;;5078872;28;20062;-69
2021/04/08 09:39:01;;;;;;;3.13;0.80;;;21.60;91.50;;;;;;5071901;28;20362;-69
2021/04/08 09:41:50;;;;;;;7.22;1.42;;;21.70;91.60;;;;;;5074198;28;20055;-69
2021/04/08 09:44:19;;;;;;;3.33;1.08;;;21.70;91.70;;;;;;5012024;28;20057;-69
2021/04/08 09:47:13;;;;;;;4.18;0.77;;;21.60;91.60;;;;;;5029461;28;20080;-68
2021/04/08 09:49:40;;;;;;;4.38;0.80;;;21.60;91.70;;;;;;5027237;28;20484;-70
2021/04/08 09:52:12;;;;;;;3.25;0.77;;;21.60;91.90;;;;;;5023994;28;20033;-69
2021/04/08 09:54:47;;;;;;;2.80;0.93;;;21.50;92.30;;;;;;5027786;28;20107;-68
2021/04/08 09:57:34;;;;;;;3.70;0.70;;;21.50;92.40;;;;;;5028256;28;20037;-69
2021/04/08 10:00:04;;;;;;;4.18;1.02;;;21.40;92.20;;;;;;5022761;28;20018;-69
2021/04/08 10:02:35;;;;;;;5.35;1.02;;;21.30;92.20;;;;;;5024464;28;20025;-69
2021/04/08 10:05:11;;;;;;;4.53;0.95;;;21.20;92.50;;;;;;5024580;28;20036;-69
2021/04/08 10:07:59;;;;;;;2.67;1.15;;;21.20;92.50;;;;;;5023926;28;20025;-69
2021/04/08 10:10:38;;;;;;;5.60;1.15;;;21.20;92.60;;;;;;5029872;28;20030;-68
2021/04/08 10:13:31;;;;;;;4.18;1.02;;;21.20;92.60;;;;;;5024122;28;20048;-68
2021/04/08 10:16:01;;;;;;;6.50;2.08;;;21.20;92.70;;;;;;5025136;28;20049;-69
2021/04/08 10:18:33;;;;;;;3.17;1.38;;;21.20;92.70;;;;;;5019409;28;20064;-70
2021/04/08 10:21:03;;;;;;;5.78;0.77;;;21.30;92.60;;;;;;5023163;28;20488;-69
2021/04/08 10:23:42;;;;;;;5.35;1.58;;;21.30;92.60;;;;;;5025029;28;20037;-68
2021/04/08 10:26:13;;;;;;;2.67;1.10;;;21.30;92.60;;;;;;5022989;28;20037;-68
2021/04/08 10:28:45;;;;;;;2.80;1.15;;;21.20;92.70;;;;;;5022944;28;20099;-68
2021/04/08 10:31:21;;;;;;;3.85;1.23;;;21.20;92.70;;;;;;5018358;28;20053;-68
2021/04/08 10:33:53;;;;;;;3.05;0.80;;;21.20;92.90;;;;;;5022523;28;20076;-68
2021/04/08 10:36:36;;;;;;;5.18;1.02;;;21.20;92.90;;;;;;5024489;28;20041;-69
2021/04/08 10:39:21;;;;;;;2.45;0.77;;;21.20;92.90;;;;;;5017556;28;20353;-68
2021/04/08 10:42:02;;;;;;;1.70;0.90;;;21.10;93.00;;;;;;5019560;28;20113;-70
2021/04/08 10:44:33;;;;;;;4.22;1.15;;;20.90;93.50;;;;;;5009881;28;20050;-68
2021/04/08 10:47:08;;;;;;;4.55;1.70;;;20.90;93.60;;;;;;5009403;28;20116;-68
2021/04/08 10:49:47;;;;;;;5.32;1.20;;;20.90;93.70;;;;;;5013661;28;20053;-69
2021/04/08 10:52:21;;;;;;;4.25;0.80;;;20.90;93.70;;;;;;5023394;28;20481;-67
2021/04/08 10:54:57;;;;;;;3.15;0.60;;;20.80;93.80;;;;;;5024495;28;20037;-68
2021/04/08 10:57:25;;;;;;;6.22;1.63;;;20.80;93.80;;;;;;5027610;28;20061;-68
2021/04/08 10:59:59;;;;;;;6.25;1.77;;;20.90;93.70;;;;;;5026233;28;20083;-69
2021/04/08 11:02:39;;;;;;;4.80;1.30;;;20.80;93.90;;;;;;5024785;28;20467;-68
2021/04/08 11:05:18;;;;;;;5.05;1.48;;;20.80;93.90;;;;;;5021419;28;20026;-68
2021/04/08 11:07:52;;;;;;;4.05;1.40;;;20.70;94.20;;;;;;5021400;28;20355;-69
2021/04/08 11:10:24;;;;;;;15.82;5.15;;;20.70;94.20;;;;;;5022833;28;20144;-68
2021/04/08 11:12:53;;;;;;;7.75;2.85;;;20.70;94.30;;;;;;5025478;28;20535;-68
2021/04/08 11:15:27;;;;;;;12.05;3.72;;;20.70;94.30;;;;;;5023201;28;20033;-68
2021/04/08 11:17:57;;;;;;;5.53;1.13;;;20.60;94.50;;;;;;5021501;28;20036;-68
2021/04/08 11:20:31;;;;;;;4.47;1.60;;;20.60;94.50;;;;;;5022248;28;20047;-68
2021/04/08 11:23:00;;;;;;;7.32;2.03;;;20.60;94.70;;;;;;5023471;28;20101;-68
2021/04/08 11:25:29;;;;;;;6.72;1.48;;;20.50;94.70;;;;;;5022567;28;20026;-68
2021/04/08 11:27:59;;;;;;;3.97;1.50;;;20.50;94.90;;;;;;5022476;28;20028;-68
2021/04/08 11:30:31;;;;;;;4.38;1.70;;;20.40;94.80;;;;;;5020710;28;20029;-67
2021/04/08 11:33:00;;;;;;;5.13;1.75;;;20.40;95.00;;;;;;5023963;28;20025;-68
2021/04/08 11:35:32;;;;;;;3.80;1.27;;;20.30;95.30;;;;;;5019937;28;22134;-68
2021/04/08 11:38:20;;;;;;;6.50;1.60;;;20.30;95.40;;;;;;5020879;28;20048;-68
2021/04/08 11:40:51;;;;;;;3.20;0.93;;;20.20;95.50;;;;;;5025027;28;20116;-69
2021/04/08 11:43:46;;;;;;;5.80;1.40;;;20.10;95.50;;;;;;5020202;28;20025;-68
2021/04/08 11:46:32;;;;;;;5.82;1.77;;;20.10;95.70;;;;;;5019944;28;20124;-68
2021/04/08 11:49:01;;;;;;;3.20;0.85;;;20.20;95.70;;;;;;5019936;28;20041;-68
2021/04/08 11:51:31;;;;;;;3.88;1.83;;;20.20;95.40;;;;;;5022115;28;20032;-69
2021/04/08 11:54:10;;;;;;;2.90;0.93;;;20.20;95.30;;;;;;5023349;28;20017;-69
2021/04/08 11:56:39;;;;;;;5.85;1.30;;;20.20;95.20;;;;;;5018441;28;20037;-68
2021/04/08 11:59:11;;;;;;;2.78;1.20;;;20.20;95.40;;;;;;5009828;28;20029;-69
2021/04/08 12:01:46;;;;;;;4.10;1.23;;;20.10;95.50;;;;;;5013630;28;20029;-68
2021/04/08 12:04:22;;;;;;;6.07;1.20;;;20.10;95.50;;;;;;5017865;28;20056;-69
2021/04/08 12:06:59;;;;;;;6.20;1.73;;;20.10;95.60;;;;;;5025058;28;20029;-67
2021/04/08 12:09:37;;;;;;;5.07;1.17;;;20.00;95.40;;;;;;5015067;28;20550;-69
2021/04/08 12:12:06;;;;;;;6.53;1.30;;;20.00;95.50;;;;;;5010212;28;20079;-68
2021/04/08 12:14:52;;;;;;;4.72;1.60;;;19.90;95.70;;;;;;5009471;28;20698;-68
2021/04/08 12:17:20;;;;;;;4.68;1.30;;;19.80;95.90;;;;;;5010378;28;20099;-68
2021/04/08 12:19:48;;;;;;;3.42;1.70;;;19.70;96.30;;;;;;5018357;28;20033;-68
2021/04/08 12:22:16;;;;;;;4.78;1.58;;;19.70;96.30;;;;;;5025679;28;20385;-67
2021/04/08 12:25:09;;;;;;;4.03;1.02;;;19.70;96.40;;;;;;5020904;28;20100;-68
2021/04/08 12:27:37;;;;;;;3.92;1.10;;;19.70;96.30;;;;;;5017872;28;20156;-68
2021/04/08 12:30:10;;;;;;;2.63;0.80;;;19.70;96.00;;;;;;5024780;28;20036;-69
2021/04/08 12:32:38;;;;;;;5.07;1.88;;;19.70;95.90;;;;;;5022302;28;20025;-69
2021/04/08 12:35:08;;;;;;;2.65;1.20;;;19.60;96.00;;;;;;5022966;28;20048;-68
2021/04/08 12:37:35;;;;;;;6.20;1.10;;;19.60;96.00;;;;;;5026045;28;20041;-70
2021/04/08 12:40:04;;;;;;;3.33;0.90;;;19.60;96.30;;;;;;5026623;28;20052;-69
2021/04/08 12:42:32;;;;;;;2.80;0.90;;;19.60;96.40;;;;;;5025022;28;20341;-71
2021/04/08 12:44:59;;;;;;;3.38;1.98;;;19.60;96.20;;;;;;5023757;28;20126;-69
2021/04/08 12:47:27;;;;;;;2.47;0.80;;;19.50;95.90;;;;;;5015437;28;20156;-68
2021/04/08 12:49:54;;;;;;;3.50;1.00;;;19.50;96.00;;;;;;5006787;28;20111;-70
2021/04/08 12:52:22;;;;;;;5.75;1.63;;;19.40;96.00;;;;;;5012819;28;20030;-69
2021/04/08 12:54:49;;;;;;;5.72;1.13;;;19.40;96.20;;;;;;5022713;28;20037;-68
2021/04/08 12:57:17;;;;;;;3.67;1.08;;;19.30;96.10;;;;;;5027279;28;20032;-67
2021/04/08 12:59:44;;;;;;;4.28;1.27;;;19.30;95.90;;;;;;5023201;28;20251;-68
2021/04/08 13:02:11;;;;;;;7.85;1.83;;;19.30;96.60;;;;;;5020160;28;20247;-69
2021/04/08 13:04:39;;;;;;;6.47;1.40;;;19.30;96.80;;;;;;5020641;28;20071;-70
2021/04/08 13:07:06;;;;;;;6.53;1.05;;;19.30;96.90;;;;;;5025093;28;20100;-74
2021/04/08 13:09:33;;;;;;;2.58;0.88;;;19.40;96.60;;;;;;5021024;28;20022;-69